Airfield :
LOGIN :

Register | Disclaimer

   EN    FR    IT 

 










Legend :    VFR   Marginal VFR   IFR   Intensive IFR   Very Intensive IFR
Visi :
Ceiling :
>= 8 km
>= 3000ft
5 to 8 km
1000 to 3000 ft
1500m to 5 km
500 to 1000 ft
800 to 1500m
200 to 500 ft
< 800m
< 200 ft
Symbols :   Thunderstorms  Fog  Heavy snow  Heavy precipitations  Wind > 20 kt
SIGMETs :     Misc.  Thunderstorms  Icing  Turbulence  Mountain Waves  Volcanic Ashes







- Airport Elevation : 162 ft
- IATA code : BOD
- Download approach charts


LFBD - Bordeaux / Merignac

CURRENT METAR :
  • 300100Z AUTO 29003KT 9999 FEW005/// BKN020/// BKN039/// ///TCU 18/16 Q1017 TEMPO BKN012

EXPIRED METARs :
  • 300030Z AUTO 33004KT 9999 BKN018 OVC098 18/16 Q1017 TEMPO BKN012
  • 300000Z AUTO 31003KT 9999 BKN017 BKN035 OVC100 18/16 Q1017 TEMPO BKN012
  • 292330Z AUTO 30003KT 9999 FEW015 BKN031 BKN050 18/16 Q1017 TEMPO BKN012
  • 292300Z AUTO 30002KT 9999 -RA BKN035 OVC092 18/16 Q1017 TEMPO 4000 -RA BKN012 BKN030TCU
  • 292230Z AUTO VRB02KT 9999 BKN031 OVC110 18/16 Q1017 TEMPO 4000 -RA BKN012 BKN030TCU

TAF TAF LFBD
Valid from the 30 at 00:00 until the 31 at 06:00 UTC


292300Z 3000/3106 32005KT 9999 BKN040
PROB40
TEMPO 3000/3008 -RA BKN012
TEMPO 3012/3020 4000 -SHRA BKN030TCU TX24/3015Z TN16/3003Z
ATIS : +33 5 57 92 81 04
No reported NOTAMs for that airfield.
2 SIGMETs reported for the Bordeaux FIR (LFBB) :
 
Embedded thunderstorms
LFBB SIGMET 2 VALID 300030/300200 LFPW
LFBB BORDEAUX FIR/UIR EMBD TS OBS AT 0020Z WI N4330 W00115 - N4400 W00145 - N4445 W00100 - N4415 W00030 TOP FL390 MOV NE 20KT NC=
Embedded thunderstorms
LFBB SIGMET 1 VALID 300000/300200 LFPW
LFBB BORDEAUX FIR/UIR EMBD TS OBS AT 2350Z WI N4715 E00145 - N4715 E00200 - N4645 E00245 - N4330 E00230 - N4445 E00100 TOP FL390 MOV NE 25KT NC=



MET'MAP, your aeronautical weather chart ! - Copyright ORBIFLY December 2007 - Disclaimer

ORBIFLY MET'MAP TEAM :

Programming & Development : Alexandra Zaïnal
Concept & Development : Baudouin d'Aumeries
Co-Development & Prog : Marc-Olivier Méhu
Technical & hardware support : Manuel Goepfert

Contact : metmap@orbifly.com




SOURCES & CREDITS :

   NOAA